Time;durP1;ratioP1;P1;durP2;ratioP2;P2;SDS_P1;SDS_P2;PMS_P1;PMS_P2;Temp;Humidity;BMP_temperature;BMP_pressure;BME280_temperature;BME280_humidity;BME280_pressure;Samples;Min_cycle;Max_cycle;Signal;HPM_P1;HPM_P2
2023/08/25 00:01:35;;;;;;;15.57;12.10;;;20.10;99.90;;;;;;5074164;28;20548;-63
2023/08/25 00:04:02;;;;;;;13.52;12.10;;;20.10;99.90;;;;;;5073913;28;20603;-64
2023/08/25 00:06:30;;;;;;;13.68;11.85;;;20.00;99.90;;;;;;5073777;28;20052;-63
2023/08/25 00:08:56;;;;;;;13.63;12.23;;;20.00;99.90;;;;;;5073517;28;20049;-63
2023/08/25 00:11:23;;;;;;;13.45;12.05;;;20.10;99.90;;;;;;5073566;28;20499;-63
2023/08/25 00:13:49;;;;;;;14.68;12.32;;;20.10;99.90;;;;;;5073878;28;20063;-63
2023/08/25 00:16:15;;;;;;;14.80;13.15;;;20.00;99.90;;;;;;5048047;28;20059;-63
2023/08/25 00:18:42;;;;;;;14.55;13.05;;;20.10;99.90;;;;;;5073419;28;20150;-64
2023/08/25 00:21:08;;;;;;;14.07;12.63;;;20.10;99.90;;;;;;5073089;28;20067;-63
2023/08/25 00:23:37;;;;;;;14.48;12.98;;;20.00;99.90;;;;;;5073343;28;20364;-63
2023/08/25 00:26:03;;;;;;;14.70;13.10;;;20.00;99.90;;;;;;5073337;28;20045;-64
2023/08/25 00:28:29;;;;;;;14.52;13.00;;;19.90;99.90;;;;;;5055265;28;20041;-64
2023/08/25 00:30:57;;;;;;;14.95;13.35;;;20.00;99.90;;;;;;5073512;28;20052;-63
2023/08/25 00:33:25;;;;;;;15.30;13.80;;;19.90;99.90;;;;;;5056663;28;20044;-63
2023/08/25 00:35:54;;;;;;;15.15;13.32;;;19.90;99.90;;;;;;5065405;28;20533;-63
2023/08/25 00:38:20;;;;;;;16.42;13.55;;;19.90;99.90;;;;;;5072597;28;20056;-63
2023/08/25 00:40:46;;;;;;;16.33;14.60;;;19.90;99.90;;;;;;5073146;28;20048;-63
2023/08/25 00:43:13;;;;;;;17.60;15.13;;;19.90;99.90;;;;;;5073381;28;20102;-63
2023/08/25 00:45:42;;;;;;;16.30;14.68;;;20.00;99.90;;;;;;5055599;28;20461;-63
2023/08/25 00:48:10;;;;;;;15.68;14.00;;;20.00;99.90;;;;;;5072708;28;20447;-63
2023/08/25 00:50:37;;;;;;;15.05;13.43;;;19.90;99.90;;;;;;5072984;28;20048;-64
2023/08/25 00:53:05;;;;;;;16.50;14.05;;;19.90;99.90;;;;;;5073100;28;20048;-63
2023/08/25 00:55:32;;;;;;;15.52;14.02;;;20.00;99.90;;;;;;5053294;28;20048;-63
2023/08/25 00:57:59;;;;;;;17.05;15.18;;;20.00;99.90;;;;;;5072620;28;20045;-63
2023/08/25 01:00:26;;;;;;;17.15;15.23;;;20.00;99.90;;;;;;5072794;28;20057;-63
2023/08/25 01:02:53;;;;;;;15.30;13.73;;;20.10;99.90;;;;;;5073228;28;20052;-63
2023/08/25 01:05:22;;;;;;;20.27;15.65;;;20.10;99.90;;;;;;5072113;28;20044;-63
2023/08/25 01:07:50;;;;;;;17.42;15.65;;;20.10;99.90;;;;;;5072392;28;20048;-64
2023/08/25 01:10:24;;;;;;;17.80;14.60;;;20.10;99.90;;;;;;5055723;28;20048;-65
2023/08/25 01:13:00;;;;;;;17.63;15.60;;;20.20;99.90;;;;;;5072910;28;20063;-63
2023/08/25 01:15:31;;;;;;;19.50;16.35;;;20.00;99.90;;;;;;5047870;28;20045;-63
2023/08/25 01:18:22;;;;;;;17.13;15.32;;;20.10;99.90;;;;;;5071725;28;20055;-65
2023/08/25 01:21:25;;;;;;;17.92;16.10;;;20.10;99.90;;;;;;5072468;28;20100;-63
2023/08/25 01:24:06;;;;;;;19.38;16.15;;;20.10;99.90;;;;;;5072743;28;20053;-63
2023/08/25 01:26:32;;;;;;;19.35;17.02;;;20.00;99.90;;;;;;5072217;28;20056;-63
2023/08/25 01:29:02;;;;;;;20.88;17.92;;;20.00;99.90;;;;;;5054760;28;20056;-64
2023/08/25 01:31:29;;;;;;;20.17;17.55;;;20.10;99.90;;;;;;5054655;28;20056;-63
2023/08/25 01:33:55;;;;;;;20.05;17.95;;;20.00;99.90;;;;;;5054480;28;20079;-63
2023/08/25 01:36:41;;;;;;;19.98;17.80;;;20.20;99.90;;;;;;5070238;28;20044;-64
2023/08/25 01:39:16;;;;;;;19.80;17.55;;;20.10;99.90;;;;;;5071420;28;20361;-64
2023/08/25 01:41:58;;;;;;;21.00;18.85;;;20.10;99.90;;;;;;5054571;28;20067;-63
2023/08/25 01:44:28;;;;;;;19.55;17.60;;;20.20;99.90;;;;;;5022323;28;20048;-63
2023/08/25 01:47:00;;;;;;;23.00;18.55;;;20.20;99.90;;;;;;5037835;28;20045;-64
2023/08/25 01:49:28;;;;;;;22.20;18.27;;;20.10;99.90;;;;;;5071854;28;20345;-64
2023/08/25 01:51:55;;;;;;;21.17;19.05;;;20.20;99.90;;;;;;5072121;28;20368;-64
2023/08/25 01:54:21;;;;;;;21.15;18.90;;;20.10;99.90;;;;;;5071888;28;20056;-64
2023/08/25 01:56:52;;;;;;;21.88;18.60;;;20.10;99.90;;;;;;5064926;28;20055;-64
2023/08/25 01:59:19;;;;;;;20.60;18.48;;;20.00;99.90;;;;;;5053639;28;20102;-63
2023/08/25 02:01:47;;;;;;;20.77;17.77;;;20.00;99.90;;;;;;5054042;28;20514;-63
2023/08/25 02:04:13;;;;;;;21.33;18.95;;;19.90;99.90;;;;;;5072095;28;20121;-63
2023/08/25 02:06:39;;;;;;;21.33;19.10;;;19.90;99.90;;;;;;5070726;28;20048;-63
2023/08/25 02:09:05;;;;;;;21.38;19.08;;;20.00;99.90;;;;;;5071293;28;20099;-62
2023/08/25 02:11:32;;;;;;;20.23;17.75;;;19.90;99.90;;;;;;5071021;28;20049;-62
2023/08/25 02:14:04;;;;;;;22.73;19.20;;;19.90;99.90;;;;;;5053862;28;20044;-63
2023/08/25 02:16:31;;;;;;;21.30;18.77;;;19.90;99.90;;;;;;5064989;28;20048;-63
2023/08/25 02:18:59;;;;;;;23.08;18.60;;;19.80;99.90;;;;;;5053721;28;20040;-63
2023/08/25 02:21:25;;;;;;;20.05;17.98;;;19.80;99.90;;;;;;5071581;28;20051;-63
2023/08/25 02:23:54;;;;;;;21.60;19.30;;;19.80;99.90;;;;;;5071637;28;20052;-61
2023/08/25 02:26:20;;;;;;;21.50;17.38;;;19.80;99.90;;;;;;5071145;28;20445;-61
2023/08/25 02:28:46;;;;;;;22.77;19.27;;;19.70;99.90;;;;;;5070845;28;20403;-64
2023/08/25 02:31:13;;;;;;;22.67;19.17;;;19.70;99.90;;;;;;5071810;28;20057;-61
2023/08/25 02:33:39;;;;;;;20.90;18.70;;;19.70;99.90;;;;;;5071632;28;20338;-62
2023/08/25 02:36:05;;;;;;;22.67;19.65;;;19.60;99.90;;;;;;5064406;28;20158;-63
2023/08/25 02:38:31;;;;;;;23.13;19.60;;;19.70;99.90;;;;;;5053068;28;20159;-64
2023/08/25 02:41:01;;;;;;;24.63;20.10;;;19.60;99.90;;;;;;5071787;28;20088;-63
2023/08/25 02:43:28;;;;;;;26.50;19.98;;;19.60;99.90;;;;;;5053956;28;20045;-63
2023/08/25 02:45:58;;;;;;;23.02;20.42;;;19.60;99.90;;;;;;5082403;28;20048;-62
2023/08/25 02:48:26;;;;;;;26.30;20.35;;;19.50;99.90;;;;;;5091975;28;20048;-63
2023/08/25 02:50:53;;;;;;;24.85;20.50;;;19.50;99.90;;;;;;5073770;28;20048;-63
2023/08/25 02:53:19;;;;;;;25.50;21.75;;;19.50;99.90;;;;;;5091609;28;20063;-64
2023/08/25 02:55:46;;;;;;;26.58;21.83;;;19.40;99.90;;;;;;5081488;28;20048;-64
2023/08/25 02:58:12;;;;;;;25.38;21.02;;;19.40;99.90;;;;;;5053322;28;20052;-63
2023/08/25 03:00:41;;;;;;;27.25;21.70;;;19.40;99.90;;;;;;5071428;28;20372;-63
2023/08/25 03:03:09;;;;;;;27.17;22.63;;;19.30;99.90;;;;;;5070637;28;20444;-63
2023/08/25 03:05:38;;;;;;;28.88;22.52;;;19.30;99.90;;;;;;5044915;28;20404;-63
2023/08/25 03:08:11;;;;;;;27.25;22.73;;;19.30;99.90;;;;;;5090914;28;20059;-63
2023/08/25 03:10:42;;;;;;;32.22;21.95;;;19.20;99.90;;;;;;5058725;28;20463;-64
2023/08/25 03:13:09;;;;;;;25.20;21.98;;;19.20;99.90;;;;;;5057119;28;20448;-63
2023/08/25 03:15:35;;;;;;;28.60;23.00;;;19.20;99.90;;;;;;5082653;28;20048;-63
2023/08/25 03:18:02;;;;;;;29.58;22.95;;;19.20;99.90;;;;;;5052580;28;20045;-63
2023/08/25 03:20:31;;;;;;;31.05;24.80;;;19.20;99.90;;;;;;5070980;28;20048;-64
2023/08/25 03:23:00;;;;;;;28.90;23.63;;;19.10;99.90;;;;;;5073597;28;20383;-64
2023/08/25 03:25:28;;;;;;;26.98;22.88;;;19.20;99.90;;;;;;5063772;28;20040;-64
2023/08/25 03:27:54;;;;;;;30.67;23.15;;;19.10;99.90;;;;;;5076654;28;20494;-63
2023/08/25 03:30:20;;;;;;;30.27;24.20;;;19.20;99.90;;;;;;5094813;28;20403;-63
2023/08/25 03:32:46;;;;;;;29.48;23.20;;;19.20;99.90;;;;;;5094567;28;20098;-63
2023/08/25 03:35:16;;;;;;;28.92;23.83;;;19.10;99.90;;;;;;5088831;28;20364;-64
2023/08/25 03:37:46;;;;;;;30.02;25.13;;;19.10;99.90;;;;;;5073469;28;20049;-65
2023/08/25 03:40:13;;;;;;;31.58;25.00;;;19.00;99.90;;;;;;5056742;28;20329;-63
2023/08/25 03:42:39;;;;;;;37.65;25.77;;;19.10;99.90;;;;;;5074470;28;20044;-62
2023/08/25 03:45:06;;;;;;;30.40;24.92;;;19.00;99.90;;;;;;5073528;28;20459;-63
2023/08/25 03:47:35;;;;;;;30.27;24.35;;;19.00;99.90;;;;;;5074323;28;20044;-62
2023/08/25 03:50:02;;;;;;;33.60;25.20;;;19.00;99.90;;;;;;5074177;28;20067;-63
2023/08/25 03:52:29;;;;;;;33.80;24.00;;;19.10;99.90;;;;;;5056709;28;20097;-63
2023/08/25 03:54:56;;;;;;;28.95;24.45;;;19.00;99.90;;;;;;5054303;28;20041;-62
2023/08/25 03:57:22;;;;;;;33.33;25.77;;;19.00;99.90;;;;;;5070439;28;20053;-63
2023/08/25 03:59:49;;;;;;;32.40;25.50;;;18.90;99.90;;;;;;5073936;28;20060;-63
2023/08/25 04:02:16;;;;;;;36.20;25.80;;;19.00;99.90;;;;;;5056436;28;20044;-63
2023/08/25 04:04:44;;;;;;;31.63;24.50;;;19.00;99.90;;;;;;5074110;28;20075;-63
2023/08/25 04:07:14;;;;;;;32.25;25.10;;;19.00;99.90;;;;;;5057100;28;20048;-63
2023/08/25 04:09:41;;;;;;;33.67;25.88;;;18.90;99.90;;;;;;5074280;28;20053;-63
2023/08/25 04:12:07;;;;;;;33.80;26.52;;;18.90;99.90;;;;;;5073711;28;20427;-64
2023/08/25 04:14:35;;;;;;;36.38;26.02;;;18.90;99.90;;;;;;5056419;28;20138;-63
2023/08/25 04:17:01;;;;;;;33.67;27.02;;;18.70;99.90;;;;;;5039476;28;20416;-63
2023/08/25 04:19:27;;;;;;;35.40;26.92;;;18.80;99.90;;;;;;5074523;28;20056;-64
2023/08/25 04:21:54;;;;;;;31.80;23.60;;;18.70;99.90;;;;;;5073565;28;20507;-63
2023/08/25 04:24:20;;;;;;;33.97;25.23;;;18.80;99.90;;;;;;5073436;28;20052;-64
2023/08/25 04:26:48;;;;;;;34.80;25.42;;;18.70;99.90;;;;;;5056057;28;20056;-64
2023/08/25 04:29:14;;;;;;;31.80;25.88;;;18.80;99.90;;;;;;5056031;28;20079;-63
2023/08/25 04:31:40;;;;;;;32.55;26.15;;;18.70;99.90;;;;;;5073590;28;20060;-63
2023/08/25 04:34:08;;;;;;;30.23;25.10;;;18.80;99.90;;;;;;5072694;28;20435;-63
2023/08/25 04:36:36;;;;;;;32.65;25.55;;;18.70;99.90;;;;;;5067657;28;20150;-62
2023/08/25 04:39:03;;;;;;;34.53;27.50;;;18.70;99.90;;;;;;5054995;28;20469;-64
2023/08/25 04:41:30;;;;;;;32.78;25.02;;;18.70;99.90;;;;;;5038916;28;20469;-63
2023/08/25 04:43:56;;;;;;;36.28;27.25;;;18.80;99.90;;;;;;5073343;28;20142;-63
2023/08/25 04:46:22;;;;;;;34.08;25.73;;;18.70;99.90;;;;;;5073161;28;20044;-63
2023/08/25 04:48:51;;;;;;;35.38;25.73;;;18.70;99.90;;;;;;5073175;28;20109;-63
2023/08/25 04:51:19;;;;;;;35.40;27.00;;;18.70;99.90;;;;;;5073006;28;20451;-63
2023/08/25 04:53:45;;;;;;;33.33;26.30;;;18.80;99.90;;;;;;5073334;28;20048;-63
2023/08/25 04:56:15;;;;;;;35.03;26.60;;;18.70;99.90;;;;;;5055387;28;20060;-63
2023/08/25 04:58:41;;;;;;;36.85;26.42;;;18.70;99.90;;;;;;5072784;28;20067;-63
2023/08/25 05:01:09;;;;;;;33.05;25.38;;;18.80;99.90;;;;;;5072811;28;20460;-63
2023/08/25 05:03:36;;;;;;;35.55;27.08;;;18.80;99.90;;;;;;5055434;28;20045;-64
2023/08/25 05:06:04;;;;;;;35.88;28.02;;;18.80;99.90;;;;;;5054711;28;20044;-63
2023/08/25 05:08:34;;;;;;;34.72;26.73;;;18.80;99.90;;;;;;5055160;28;20131;-63
2023/08/25 05:11:03;;;;;;;38.95;28.65;;;18.80;99.90;;;;;;5055763;28;20048;-64
2023/08/25 05:13:31;;;;;;;35.47;26.58;;;18.90;99.90;;;;;;5072708;28;20075;-63
2023/08/25 05:15:57;;;;;;;35.08;26.27;;;18.80;99.90;;;;;;5072286;28;20044;-63
2023/08/25 05:18:25;;;;;;;34.90;26.73;;;18.90;99.90;;;;;;5054132;28;20048;-63
2023/08/25 05:20:59;;;;;;;37.15;28.00;;;18.90;99.90;;;;;;5055730;28;20052;-63
2023/08/25 05:23:26;;;;;;;39.03;26.98;;;18.90;99.90;;;;;;5054874;28;20194;-64
2023/08/25 05:25:55;;;;;;;36.90;26.80;;;18.90;99.90;;;;;;5067136;28;20055;-63
2023/08/25 05:28:23;;;;;;;36.88;26.90;;;19.00;99.90;;;;;;5018419;28;20049;-63
2023/08/25 05:30:49;;;;;;;35.08;27.38;;;19.20;99.90;;;;;;5054593;28;20094;-64
2023/08/25 05:33:16;;;;;;;36.67;28.08;;;19.20;99.90;;;;;;5038310;28;20048;-64
2023/08/25 05:35:42;;;;;;;34.67;27.83;;;19.40;99.90;;;;;;5072160;28;20102;-63
2023/08/25 05:38:08;;;;;;;35.15;26.45;;;19.50;99.90;;;;;;5071750;28;20067;-63
2023/08/25 05:40:34;;;;;;;36.60;27.75;;;19.60;99.90;;;;;;5054588;28;20052;-63
2023/08/25 05:43:06;;;;;;;38.60;27.15;;;19.80;99.90;;;;;;5071909;28;20049;-63
2023/08/25 05:45:34;;;;;;;34.60;26.08;;;20.00;99.90;;;;;;5048420;28;20048;-63
2023/08/25 05:48:01;;;;;;;36.83;28.77;;;20.00;99.90;;;;;;5054478;28;20044;-63
2023/08/25 05:50:27;;;;;;;35.10;26.50;;;20.20;99.90;;;;;;5037685;28;20048;-63
2023/08/25 05:52:53;;;;;;;34.97;26.50;;;20.10;99.90;;;;;;5054652;28;20058;-63
2023/08/25 05:55:19;;;;;;;33.90;25.85;;;20.20;99.90;;;;;;5071448;28;20414;-63
2023/08/25 05:57:46;;;;;;;35.15;26.92;;;20.10;99.90;;;;;;5071878;28;20059;-64
2023/08/25 06:00:13;;;;;;;38.80;28.67;;;20.10;99.90;;;;;;5071873;28;20483;-63
2023/08/25 06:02:40;;;;;;;37.25;27.23;;;20.10;99.90;;;;;;5054542;28;20044;-63
2023/08/25 06:05:08;;;;;;;34.33;26.60;;;20.20;99.90;;;;;;5050805;28;20082;-63
2023/08/25 06:07:34;;;;;;;34.35;25.60;;;20.20;99.90;;;;;;5070115;28;20044;-62
2023/08/25 06:10:01;;;;;;;36.63;26.90;;;20.20;99.90;;;;;;5054072;28;20131;-63
2023/08/25 06:12:28;;;;;;;34.55;26.15;;;20.10;99.90;;;;;;5071992;28;20059;-64
2023/08/25 06:14:54;;;;;;;34.58;27.00;;;20.10;99.90;;;;;;5071285;28;20117;-64
2023/08/25 06:17:21;;;;;;;32.10;25.42;;;20.20;99.90;;;;;;5071705;28;20053;-64
2023/08/25 06:19:47;;;;;;;36.25;26.50;;;20.10;99.90;;;;;;5071991;28;20048;-63
2023/08/25 06:22:17;;;;;;;33.78;25.73;;;20.20;99.90;;;;;;5054467;28;20048;-64
2023/08/25 06:24:43;;;;;;;35.08;26.35;;;20.00;99.90;;;;;;5037638;28;20053;-64
2023/08/25 06:27:10;;;;;;;35.00;26.00;;;20.10;99.90;;;;;;5045859;28;20049;-63
2023/08/25 06:29:38;;;;;;;34.72;25.40;;;20.10;99.90;;;;;;5071437;28;20049;-63
2023/08/25 06:32:05;;;;;;;35.25;27.35;;;20.00;99.90;;;;;;5071882;28;20114;-63
2023/08/25 06:34:33;;;;;;;36.78;25.83;;;20.10;99.90;;;;;;5071491;28;20048;-64
2023/08/25 06:37:02;;;;;;;40.40;29.88;;;20.00;99.90;;;;;;5071170;28;20048;-62
2023/08/25 06:39:31;;;;;;;39.55;29.40;;;20.00;99.90;;;;;;5071401;28;20155;-64
2023/08/25 06:42:07;;;;;;;40.00;28.92;;;19.80;99.90;;;;;;5054740;28;20115;-62
2023/08/25 06:44:33;;;;;;;38.47;28.42;;;19.80;99.90;;;;;;5071822;28;20060;-62
2023/08/25 06:47:01;;;;;;;40.83;27.92;;;19.70;99.90;;;;;;5036343;28;20063;-63
2023/08/25 06:49:28;;;;;;;37.85;29.30;;;19.80;99.90;;;;;;5035429;28;20045;-63
2023/08/25 06:51:54;;;;;;;36.17;28.10;;;19.70;99.90;;;;;;5071565;28;20053;-63
2023/08/25 06:54:21;;;;;;;38.08;27.75;;;19.90;99.90;;;;;;5071023;28;20392;-63
2023/08/25 06:56:48;;;;;;;35.13;26.27;;;19.90;99.90;;;;;;5069749;28;20315;-63
2023/08/25 06:59:16;;;;;;;37.85;27.63;;;20.00;99.90;;;;;;5074822;28;20079;-64
2023/08/25 07:01:44;;;;;;;36.50;27.02;;;20.10;99.90;;;;;;5075239;28;20483;-64
2023/08/25 07:04:11;;;;;;;35.53;27.30;;;20.20;99.90;;;;;;5057320;28;20049;-63
2023/08/25 07:06:40;;;;;;;38.33;27.13;;;20.30;99.90;;;;;;5070664;28;20044;-63
2023/08/25 07:09:06;;;;;;;37.75;27.80;;;20.40;99.90;;;;;;5074401;28;20102;-62
2023/08/25 07:11:33;;;;;;;38.53;27.27;;;20.50;99.90;;;;;;5074688;28;20055;-63
2023/08/25 07:13:59;;;;;;;39.22;28.38;;;20.70;99.90;;;;;;5074896;28;20456;-63
2023/08/25 07:16:26;;;;;;;34.03;25.60;;;20.60;99.90;;;;;;5074640;28;20392;-62
2023/08/25 07:18:53;;;;;;;36.35;26.92;;;20.90;99.90;;;;;;5056496;28;20071;-63
2023/08/25 07:21:19;;;;;;;35.45;26.25;;;21.00;99.90;;;;;;5056498;28;20048;-62
2023/08/25 07:23:46;;;;;;;36.08;26.33;;;21.20;99.90;;;;;;5056718;28;20049;-63
2023/08/25 07:26:12;;;;;;;32.40;24.45;;;21.30;99.90;;;;;;5056304;28;20147;-63
2023/08/25 07:28:41;;;;;;;31.80;24.67;;;21.30;99.90;;;;;;5073912;28;20476;-63
2023/08/25 07:31:08;;;;;;;30.20;23.17;;;21.60;99.90;;;;;;5056367;28;20055;-62
2023/08/25 07:33:34;;;;;;;30.75;22.92;;;21.80;99.90;;;;;;5074768;28;20052;-62
2023/08/25 07:36:03;;;;;;;26.35;19.98;;;21.80;99.90;;;;;;5069938;28;20056;-63
2023/08/25 07:38:32;;;;;;;24.08;18.73;;;21.90;99.90;;;;;;5073435;28;20118;-62
2023/08/25 07:41:01;;;;;;;23.10;18.05;;;22.10;99.90;;;;;;5057611;28;20078;-63
2023/08/25 07:43:27;;;;;;;24.40;18.63;;;22.40;99.90;;;;;;5074150;28;20426;-63
2023/08/25 07:45:55;;;;;;;22.73;17.58;;;22.60;99.90;;;;;;5073900;28;20364;-63
2023/08/25 07:48:23;;;;;;;21.40;15.65;;;22.80;99.90;;;;;;5056443;28;20045;-64
2023/08/25 07:50:51;;;;;;;20.00;15.32;;;22.70;99.90;;;;;;5073323;28;20083;-64
2023/08/25 07:53:17;;;;;;;20.30;16.05;;;22.70;99.90;;;;;;5056994;28;20437;-63
2023/08/25 07:55:43;;;;;;;21.02;15.93;;;22.80;99.90;;;;;;5070586;28;20048;-62
2023/08/25 07:58:11;;;;;;;20.25;15.23;;;22.60;99.90;;;;;;5073629;28;20144;-63
2023/08/25 08:00:37;;;;;;;21.08;15.05;;;22.60;99.90;;;;;;5074206;28;20125;-63
2023/08/25 08:03:06;;;;;;;18.75;14.05;;;22.70;99.90;;;;;;5074028;28;20424;-63
2023/08/25 08:05:32;;;;;;;19.25;12.98;;;22.50;99.90;;;;;;5073824;28;20441;-63
2023/08/25 08:07:58;;;;;;;17.23;12.82;;;22.50;99.90;;;;;;5073374;28;20147;-64
2023/08/25 08:10:25;;;;;;;16.83;12.65;;;22.60;99.90;;;;;;5055995;28;20054;-63
2023/08/25 08:12:52;;;;;;;18.35;12.45;;;22.50;99.90;;;;;;5073930;28;20358;-62
2023/08/25 08:15:19;;;;;;;17.85;13.10;;;22.50;99.90;;;;;;5052572;28;20488;-63
2023/08/25 08:17:46;;;;;;;18.13;13.05;;;22.50;99.90;;;;;;5055480;28;20048;-64
2023/08/25 08:20:13;;;;;;;20.52;14.32;;;22.60;99.90;;;;;;5073466;28;20053;-62
2023/08/25 08:22:42;;;;;;;17.25;13.38;;;22.40;99.90;;;;;;5073577;28;20045;-62
2023/08/25 08:25:10;;;;;;;21.90;15.63;;;22.30;99.90;;;;;;5073618;28;20052;-63
2023/08/25 08:27:41;;;;;;;19.27;14.60;;;22.30;99.90;;;;;;5055466;28;20052;-63
2023/08/25 08:30:14;;;;;;;19.02;14.57;;;22.30;99.90;;;;;;5073233;28;20146;-63
2023/08/25 08:32:40;;;;;;;21.30;15.38;;;22.20;99.90;;;;;;5073888;28;20048;-63
2023/08/25 08:35:09;;;;;;;22.35;15.88;;;22.30;99.90;;;;;;5070742;28;20052;-63
2023/08/25 08:37:36;;;;;;;21.40;16.45;;;22.20;99.90;;;;;;5071741;28;20359;-63
2023/08/25 08:40:05;;;;;;;24.27;17.75;;;22.30;99.90;;;;;;5071348;28;20205;-63
2023/08/25 08:42:34;;;;;;;26.13;17.77;;;22.30;99.90;;;;;;5073086;28;20070;-63
2023/08/25 08:45:09;;;;;;;23.17;15.32;;;22.20;99.90;;;;;;5072539;28;20427;-63
2023/08/25 08:47:37;;;;;;;23.98;16.65;;;22.30;99.90;;;;;;5055896;28;20063;-62
2023/08/25 08:50:07;;;;;;;22.58;18.10;;;22.30;99.90;;;;;;5056346;28;20511;-62
2023/08/25 08:52:36;;;;;;;22.67;17.92;;;22.20;99.90;;;;;;5056573;28;20427;-62
2023/08/25 08:55:05;;;;;;;23.67;17.40;;;22.20;99.90;;;;;;5071916;28;20122;-62
2023/08/25 08:57:32;;;;;;;23.20;16.40;;;22.20;99.90;;;;;;5055635;28;20102;-62
2023/08/25 08:59:59;;;;;;;23.95;17.75;;;22.20;99.90;;;;;;5073285;28;20059;-63
2023/08/25 09:02:28;;;;;;;30.08;18.85;;;22.10;99.90;;;;;;5055865;28;20105;-62
2023/08/25 09:04:58;;;;;;;27.35;18.92;;;22.20;99.90;;;;;;5072491;28;20495;-63
2023/08/25 09:07:27;;;;;;;23.65;17.50;;;22.20;99.90;;;;;;5035263;28;20429;-62
2023/08/25 09:09:58;;;;;;;25.25;18.77;;;22.30;99.90;;;;;;5052769;28;20049;-63
2023/08/25 09:12:29;;;;;;;27.55;19.67;;;22.20;99.90;;;;;;5036288;28;20041;-63
2023/08/25 09:14:55;;;;;;;27.13;19.60;;;22.20;99.90;;;;;;5035974;28;20454;-63
2023/08/25 09:17:22;;;;;;;28.17;19.05;;;22.10;99.90;;;;;;5071805;28;20500;-62
2023/08/25 09:19:48;;;;;;;25.58;19.00;;;22.20;99.90;;;;;;5072586;28;20071;-62
2023/08/25 09:22:19;;;;;;;25.98;19.30;;;22.10;99.90;;;;;;5072841;28;20087;-62
2023/08/25 09:24:45;;;;;;;28.35;19.38;;;22.20;99.90;;;;;;5021987;28;20074;-63
2023/08/25 09:27:26;;;;;;;31.92;20.30;;;22.20;99.90;;;;;;5069221;28;20044;-63
2023/08/25 09:30:03;;;;;;;29.85;21.85;;;22.30;99.90;;;;;;5072527;28;20135;-63
2023/08/25 09:32:35;;;;;;;26.80;21.17;;;22.20;99.90;;;;;;5055491;28;20142;-63
2023/08/25 09:35:21;;;;;;;28.92;21.73;;;22.40;99.90;;;;;;5071797;28;20122;-63
2023/08/25 09:37:49;;;;;;;28.52;21.20;;;22.50;99.90;;;;;;5046942;28;20328;-63
2023/08/25 09:40:17;;;;;;;28.23;21.65;;;22.60;99.90;;;;;;5052468;28;20393;-62
2023/08/25 09:42:44;;;;;;;26.65;20.80;;;22.60;99.90;;;;;;5072515;28;20049;-63
2023/08/25 09:45:13;;;;;;;31.02;21.88;;;22.80;99.90;;;;;;5072015;28;20045;-62
2023/08/25 09:47:41;;;;;;;28.23;20.77;;;22.70;99.90;;;;;;5037711;28;20067;-62
2023/08/25 09:50:19;;;;;;;26.10;20.55;;;22.80;99.90;;;;;;5072392;28;20070;-62
2023/08/25 09:52:47;;;;;;;29.77;21.52;;;22.80;99.90;;;;;;5072778;28;20052;-63
2023/08/25 09:55:15;;;;;;;29.20;21.45;;;22.80;99.90;;;;;;5070306;28;20476;-62
2023/08/25 09:57:46;;;;;;;27.10;21.45;;;22.80;99.90;;;;;;5071713;28;20048;-62
2023/08/25 10:00:14;;;;;;;25.45;19.88;;;22.80;99.90;;;;;;5072193;28;20052;-63
2023/08/25 10:02:42;;;;;;;24.65;19.25;;;22.90;99.90;;;;;;5054297;28;20119;-62
2023/08/25 10:05:14;;;;;;;26.35;19.45;;;22.80;99.90;;;;;;5071721;28;20438;-63
2023/08/25 10:07:43;;;;;;;26.80;19.42;;;22.80;99.90;;;;;;5054961;28;20376;-62
2023/08/25 10:10:10;;;;;;;26.92;21.10;;;23.00;99.90;;;;;;5071995;28;20040;-63
2023/08/25 10:12:38;;;;;;;26.25;20.60;;;23.00;99.90;;;;;;5072238;28;20052;-62
2023/08/25 10:15:09;;;;;;;24.13;20.02;;;23.00;99.90;;;;;;5053743;28;20146;-63
2023/08/25 10:17:36;;;;;;;25.85;19.27;;;23.20;99.90;;;;;;5051593;28;20061;-63
2023/08/25 10:20:07;;;;;;;27.25;20.42;;;23.40;99.90;;;;;;5053685;28;20083;-63
2023/08/25 10:22:35;;;;;;;30.38;21.38;;;23.60;99.90;;;;;;5055186;28;20060;-63
2023/08/25 10:25:05;;;;;;;28.38;20.17;;;23.60;99.90;;;;;;5053613;28;20048;-63
2023/08/25 10:27:33;;;;;;;25.88;19.45;;;23.60;99.90;;;;;;5031995;28;20080;-62
2023/08/25 10:30:00;;;;;;;25.13;19.67;;;23.50;99.90;;;;;;5050311;28;20429;-63
2023/08/25 10:32:49;;;;;;;25.95;20.23;;;23.40;99.90;;;;;;5054065;28;20106;-62
2023/08/25 10:35:35;;;;;;;;;;;23.20;99.90;;;;;;5024515;28;20071;-63
2023/08/25 10:38:04;;;;;;;23.27;18.80;;;23.00;99.90;;;;;;5075588;28;19931;-63
2023/08/25 10:40:41;;;;;;;22.85;18.13;;;23.00;99.90;;;;;;5041684;28;20380;-63
2023/08/25 10:43:08;;;;;;;22.40;17.23;;;23.00;99.90;;;;;;5057659;28;20048;-62
2023/08/25 10:45:36;;;;;;;24.23;19.20;;;23.00;99.90;;;;;;5050731;28;20048;-63
2023/08/25 10:48:09;;;;;;;26.40;18.15;;;23.10;99.90;;;;;;5054558;28;20057;-63
2023/08/25 10:50:40;;;;;;;25.27;18.67;;;23.10;99.90;;;;;;5041019;28;20135;-62
2023/08/25 10:53:36;;;;;;;22.95;18.00;;;23.00;99.90;;;;;;5075068;28;20052;-64
2023/08/25 10:56:33;;;;;;;22.48;17.38;;;22.80;99.90;;;;;;5057629;28;20461;-64
2023/08/25 10:59:10;;;;;;;24.10;18.00;;;22.80;99.90;;;;;;5038278;28;20530;-63
2023/08/25 11:01:42;;;;;;;26.15;19.52;;;22.70;99.90;;;;;;5058660;28;20461;-63
2023/08/25 11:04:35;;;;;;;23.23;18.73;;;22.70;99.90;;;;;;5075291;28;20041;-63
2023/08/25 11:07:02;;;;;;;25.48;20.73;;;22.60;99.90;;;;;;5067509;28;20045;-63
2023/08/25 11:09:30;;;;;;;25.38;19.65;;;22.60;99.90;;;;;;5057649;28;20048;-64
2023/08/25 11:12:03;;;;;;;24.20;20.27;;;22.50;99.90;;;;;;5040798;28;20341;-63
2023/08/25 11:14:31;;;;;;;25.52;21.95;;;22.30;99.90;;;;;;5075199;28;20052;-64
2023/08/25 11:17:06;;;;;;;26.83;22.10;;;22.30;99.90;;;;;;5074272;28;20048;-64
2023/08/25 11:19:35;;;;;;;26.17;21.98;;;22.20;99.90;;;;;;5058107;28;20044;-63
2023/08/25 11:22:05;;;;;;;28.15;22.13;;;22.10;99.90;;;;;;5040815;28;20056;-63
2023/08/25 11:24:32;;;;;;;26.35;21.88;;;22.30;99.90;;;;;;5041181;28;20041;-64
2023/08/25 11:27:12;;;;;;;28.65;22.40;;;22.30;99.90;;;;;;5074161;28;20048;-64
2023/08/25 11:29:44;;;;;;;26.30;22.83;;;22.10;99.90;;;;;;5058038;28;20052;-63
2023/08/25 11:32:15;;;;;;;25.92;22.00;;;22.20;99.90;;;;;;5074593;28;20048;-63
2023/08/25 11:34:47;;;;;;;26.85;21.90;;;22.20;99.90;;;;;;5074621;28;20060;-63
2023/08/25 11:37:14;;;;;;;29.30;22.50;;;22.10;99.90;;;;;;5072239;28;20114;-64
2023/08/25 11:39:42;;;;;;;25.88;21.38;;;22.20;99.90;;;;;;5056948;28;20051;-63
2023/08/25 11:42:08;;;;;;;26.58;20.95;;;22.20;99.90;;;;;;5074704;28;20063;-63
2023/08/25 11:44:40;;;;;;;28.92;23.55;;;22.20;99.90;;;;;;5074367;28;20056;-63
2023/08/25 11:47:08;;;;;;;24.13;19.75;;;22.20;99.90;;;;;;5074127;28;20048;-64
2023/08/25 11:49:35;;;;;;;24.20;20.67;;;22.30;99.90;;;;;;5074472;28;20045;-63
2023/08/25 11:52:01;;;;;;;25.08;21.13;;;22.30;99.90;;;;;;5056888;28;20044;-63
2023/08/25 11:54:28;;;;;;;22.35;18.70;;;22.30;99.90;;;;;;5056921;28;20373;-62
2023/08/25 11:57:36;;;;;;;24.27;19.38;;;22.30;99.90;;;;;;5055557;28;20409;-62
2023/08/25 12:00:10;;;;;;;23.02;19.70;;;22.30;99.90;;;;;;5073971;28;20099;-62
2023/08/25 12:02:36;;;;;;;21.73;17.40;;;22.20;99.90;;;;;;5056200;28;20056;-63
2023/08/25 12:05:04;;;;;;;23.13;19.35;;;22.20;99.90;;;;;;5073735;28;20075;-63
2023/08/25 12:07:37;;;;;;;26.25;18.35;;;22.40;99.90;;;;;;5073020;28;20056;-63
2023/08/25 12:10:05;;;;;;;21.33;16.92;;;22.40;99.90;;;;;;5074258;28;20146;-63
2023/08/25 12:12:37;;;;;;;20.75;17.55;;;22.40;99.90;;;;;;5056332;28;20105;-63
2023/08/25 12:15:08;;;;;;;21.35;18.02;;;22.30;99.90;;;;;;5056019;28;20178;-63
2023/08/25 12:17:36;;;;;;;20.85;17.50;;;22.40;99.90;;;;;;5055159;28;20053;-63
2023/08/25 12:20:15;;;;;;;20.60;17.65;;;22.30;99.90;;;;;;5073849;28;20056;-64
2023/08/25 12:23:00;;;;;;;22.52;16.45;;;22.30;99.90;;;;;;5056054;28;20106;-63
2023/08/25 12:25:30;;;;;;;18.85;14.02;;;22.30;99.90;;;;;;5071490;28;20053;-63
2023/08/25 12:27:58;;;;;;;14.52;12.43;;;22.20;99.90;;;;;;5051915;28;20056;-62
2023/08/25 12:30:25;;;;;;;19.55;13.80;;;22.00;99.90;;;;;;5070861;28;20044;-62
2023/08/25 12:32:53;;;;;;;15.82;13.25;;;22.10;99.90;;;;;;5072892;28;20049;-62
2023/08/25 12:35:22;;;;;;;16.25;13.45;;;22.10;99.90;;;;;;5054717;28;20118;-62
2023/08/25 12:37:49;;;;;;;19.08;15.00;;;22.00;99.90;;;;;;5055813;28;20052;-63